createdAt,value
2023-04-19T02:18:46.976Z,74.47
2023-04-19T02:33:38.256Z,74.84
2023-04-19T02:48:29.615Z,74.54
2023-04-19T03:03:21.679Z,74.84
2023-04-19T03:18:14.321Z,74.89
2023-04-19T03:33:05.605Z,74.85
2023-04-19T03:47:57.360Z,74.54
2023-04-19T04:02:48.319Z,74.62
2023-04-19T04:17:39.505Z,74.92
2023-04-19T04:32:31.310Z,75.30
2023-04-19T04:47:22.216Z,75.14
2023-04-19T05:02:13.154Z,74.42
2023-04-19T05:17:07.075Z,74.51
2023-04-19T05:31:55.955Z,74.03
2023-04-19T05:46:45.589Z,73.98
2023-04-19T06:01:37.045Z,73.97
2023-04-19T06:16:28.722Z,73.60
2023-04-19T06:31:20.020Z,72.61
2023-04-19T06:46:12.108Z,71.51
2023-04-19T07:01:04.831Z,69.96
2023-04-19T07:33:25.932Z,68.01
2023-04-19T07:35:50.776Z,68.01
2023-04-19T08:05:03.903Z,66.15
2023-04-19T08:49:47.581Z,60.18
2023-04-19T09:04:39.249Z,60.63
2023-04-19T09:19:30.631Z,61.31
2023-04-19T09:34:22.223Z,62.96
2023-04-19T09:49:23.131Z,63.26
2023-04-19T10:04:19.881Z,63.17
2023-04-19T10:18:57.456Z,61.34
2023-04-19T10:33:49.576Z,60.15
2023-04-19T10:48:40.493Z,60.65
2023-04-19T11:03:45.068Z,61.23
2023-04-19T11:18:39.903Z,61.45
2023-04-19T11:33:33.682Z,62.48
2023-04-19T11:48:26.979Z,63.98
2023-04-19T12:03:26.555Z,66.64
2023-04-19T12:18:19.069Z,76.68
2023-04-19T12:33:09.954Z,76.04
2023-04-19T12:48:02.121Z,74.84
2023-04-19T13:02:53.862Z,71.57
2023-04-19T13:17:46.348Z,73.64
2023-04-19T13:32:37.650Z,76.87
2023-04-19T13:47:29.760Z,78.29
2023-04-19T14:02:21.160Z,81.89
2023-04-19T14:17:12.645Z,82.32
2023-04-19T14:32:17.163Z,81.28
2023-04-19T14:46:59.032Z,76.69
2023-04-19T15:01:51.973Z,73.50
2023-04-19T15:16:53.740Z,65.81
2023-04-19T15:31:43.087Z,65.43
2023-04-19T15:46:34.571Z,65.16
2023-04-19T16:01:23.375Z,64.44
2023-04-19T16:16:15.080Z,57.77
2023-04-19T16:31:00.208Z,66.37
2023-04-19T16:45:50.729Z,64.24
2023-04-19T17:00:44.661Z,66.51
2023-04-19T18:00:15.024Z,69.14
2023-04-19T18:15:07.137Z,66.34
2023-04-19T18:44:54.372Z,57.58
2023-04-19T19:14:54.281Z,52.67
2023-04-19T19:29:42.490Z,51.71
2023-04-19T21:29:13.524Z,55.61
2023-04-19T21:44:04.822Z,57.26
2023-04-19T21:58:56.213Z,57.67
2023-04-19T22:13:48.230Z,57.34
2023-04-19T22:28:39.529Z,57.88
2023-04-19T22:43:32.084Z,57.53
2023-04-19T22:58:22.453Z,58.08
2023-04-19T23:13:13.647Z,58.81
2023-04-19T23:28:05.799Z,59.27
2023-04-19T23:42:56.256Z,61.08
2023-04-19T23:57:47.176Z,61.67
